sensor_id;sensor_type;location;lat;lon;timestamp;P1;durP1;ratioP1;P2;durP2;ratioP2
18804;SDS011;9530;48.930;9.526;2023-03-31T00:02:23;5.20;;;1.60;;
18804;SDS011;9530;48.930;9.526;2023-03-31T00:04:53;4.13;;;1.57;;
18804;SDS011;9530;48.930;9.526;2023-03-31T00:07:23;5.43;;;1.70;;
18804;SDS011;9530;48.930;9.526;2023-03-31T00:09:52;4.70;;;1.67;;
18804;SDS011;9530;48.930;9.526;2023-03-31T00:12:21;6.00;;;1.90;;
18804;SDS011;9530;48.930;9.526;2023-03-31T00:14:48;7.17;;;1.80;;
18804;SDS011;9530;48.930;9.526;2023-03-31T00:17:14;7.73;;;1.93;;
18804;SDS011;9530;48.930;9.526;2023-03-31T00:19:42;6.23;;;1.97;;
18804;SDS011;9530;48.930;9.526;2023-03-31T00:22:09;4.43;;;1.50;;
18804;SDS011;9530;48.930;9.526;2023-03-31T00:24:35;5.47;;;1.67;;
18804;SDS011;9530;48.930;9.526;2023-03-31T00:27:04;6.87;;;1.93;;
18804;SDS011;9530;48.930;9.526;2023-03-31T00:29:30;4.90;;;1.80;;
18804;SDS011;9530;48.930;9.526;2023-03-31T00:31:59;6.37;;;1.70;;
18804;SDS011;9530;48.930;9.526;2023-03-31T00:34:26;8.60;;;2.23;;
18804;SDS011;9530;48.930;9.526;2023-03-31T00:36:54;5.03;;;1.70;;
18804;SDS011;9530;48.930;9.526;2023-03-31T00:39:26;5.57;;;1.40;;
18804;SDS011;9530;48.930;9.526;2023-03-31T00:41:55;4.87;;;1.60;;
18804;SDS011;9530;48.930;9.526;2023-03-31T00:44:23;5.60;;;1.50;;
18804;SDS011;9530;48.930;9.526;2023-03-31T00:46:54;5.63;;;2.00;;
18804;SDS011;9530;48.930;9.526;2023-03-31T00:49:26;5.10;;;1.57;;
18804;SDS011;9530;48.930;9.526;2023-03-31T00:51:56;5.77;;;1.60;;
18804;SDS011;9530;48.930;9.526;2023-03-31T00:54:27;5.40;;;1.60;;
18804;SDS011;9530;48.930;9.526;2023-03-31T00:56:57;5.47;;;1.67;;
18804;SDS011;9530;48.930;9.526;2023-03-31T00:59:29;4.50;;;1.63;;
18804;SDS011;9530;48.930;9.526;2023-03-31T01:01:57;4.80;;;1.73;;
18804;SDS011;9530;48.930;9.526;2023-03-31T01:04:26;6.10;;;1.60;;
18804;SDS011;9530;48.930;9.526;2023-03-31T01:06:57;5.60;;;1.60;;
18804;SDS011;9530;48.930;9.526;2023-03-31T01:09:29;5.50;;;2.10;;
18804;SDS011;9530;48.930;9.526;2023-03-31T01:11:59;5.27;;;1.60;;
18804;SDS011;9530;48.930;9.526;2023-03-31T01:14:26;5.80;;;1.70;;
18804;SDS011;9530;48.930;9.526;2023-03-31T01:16:54;4.83;;;1.70;;
18804;SDS011;9530;48.930;9.526;2023-03-31T01:19:23;4.10;;;1.73;;
18804;SDS011;9530;48.930;9.526;2023-03-31T01:25:09;8.70;;;1.60;;
18804;SDS011;9530;48.930;9.526;2023-03-31T01:28:07;5.97;;;1.90;;
18804;SDS011;9530;48.930;9.526;2023-03-31T01:30:49;6.60;;;1.60;;
18804;SDS011;9530;48.930;9.526;2023-03-31T01:34:13;4.83;;;1.70;;
18804;SDS011;9530;48.930;9.526;2023-03-31T01:40:06;4.00;;;1.73;;
18804;SDS011;9530;48.930;9.526;2023-03-31T01:42:46;5.47;;;1.80;;
18804;SDS011;9530;48.930;9.526;2023-03-31T01:45:22;5.57;;;1.80;;
18804;SDS011;9530;48.930;9.526;2023-03-31T01:47:58;9.63;;;1.80;;
18804;SDS011;9530;48.930;9.526;2023-03-31T01:50:29;4.50;;;1.93;;
18804;SDS011;9530;48.930;9.526;2023-03-31T01:53:01;4.90;;;2.10;;
18804;SDS011;9530;48.930;9.526;2023-03-31T01:55:35;10.27;;;2.07;;
18804;SDS011;9530;48.930;9.526;2023-03-31T01:58:07;4.50;;;1.83;;
18804;SDS011;9530;48.930;9.526;2023-03-31T02:00:40;7.80;;;1.87;;
18804;SDS011;9530;48.930;9.526;2023-03-31T02:03:16;3.57;;;1.97;;
18804;SDS011;9530;48.930;9.526;2023-03-31T02:05:46;7.80;;;1.80;;
18804;SDS011;9530;48.930;9.526;2023-03-31T02:08:19;6.17;;;1.93;;
18804;SDS011;9530;48.930;9.526;2023-03-31T02:10:49;4.60;;;2.00;;
18804;SDS011;9530;48.930;9.526;2023-03-31T02:13:17;6.77;;;2.13;;
18804;SDS011;9530;48.930;9.526;2023-03-31T02:15:46;6.47;;;2.33;;
18804;SDS011;9530;48.930;9.526;2023-03-31T02:18:18;6.83;;;2.07;;
18804;SDS011;9530;48.930;9.526;2023-03-31T02:20:50;5.20;;;1.97;;
18804;SDS011;9530;48.930;9.526;2023-03-31T02:23:21;9.30;;;2.07;;
18804;SDS011;9530;48.930;9.526;2023-03-31T02:25:56;4.93;;;1.97;;
18804;SDS011;9530;48.930;9.526;2023-03-31T02:28:26;6.93;;;2.23;;
18804;SDS011;9530;48.930;9.526;2023-03-31T02:30:57;6.93;;;2.20;;
18804;SDS011;9530;48.930;9.526;2023-03-31T02:33:31;6.40;;;2.40;;
18804;SDS011;9530;48.930;9.526;2023-03-31T02:35:59;5.40;;;2.17;;
18804;SDS011;9530;48.930;9.526;2023-03-31T02:38:26;5.57;;;2.17;;
18804;SDS011;9530;48.930;9.526;2023-03-31T02:40:56;4.37;;;1.57;;
18804;SDS011;9530;48.930;9.526;2023-03-31T02:43:23;6.80;;;2.00;;
18804;SDS011;9530;48.930;9.526;2023-03-31T02:45:50;5.80;;;1.70;;
18804;SDS011;9530;48.930;9.526;2023-03-31T02:48:17;7.37;;;2.03;;
18804;SDS011;9530;48.930;9.526;2023-03-31T02:51:11;5.73;;;1.77;;
18804;SDS011;9530;48.930;9.526;2023-03-31T02:54:06;5.13;;;1.60;;
18804;SDS011;9530;48.930;9.526;2023-03-31T02:56:48;5.70;;;1.93;;
18804;SDS011;9530;48.930;9.526;2023-03-31T02:59:32;5.97;;;1.80;;
18804;SDS011;9530;48.930;9.526;2023-03-31T03:02:10;4.67;;;1.60;;
18804;SDS011;9530;48.930;9.526;2023-03-31T03:04:50;5.57;;;1.70;;
18804;SDS011;9530;48.930;9.526;2023-03-31T03:07:28;5.53;;;1.90;;
18804;SDS011;9530;48.930;9.526;2023-03-31T03:10:00;6.63;;;1.90;;
18804;SDS011;9530;48.930;9.526;2023-03-31T03:12:32;7.17;;;2.23;;
18804;SDS011;9530;48.930;9.526;2023-03-31T03:15:09;5.10;;;2.00;;
18804;SDS011;9530;48.930;9.526;2023-03-31T03:17:38;6.60;;;2.07;;
18804;SDS011;9530;48.930;9.526;2023-03-31T03:20:07;4.80;;;1.70;;
18804;SDS011;9530;48.930;9.526;2023-03-31T03:22:37;4.20;;;1.70;;
18804;SDS011;9530;48.930;9.526;2023-03-31T03:25:05;6.77;;;2.20;;
18804;SDS011;9530;48.930;9.526;2023-03-31T03:27:35;4.57;;;1.90;;
18804;SDS011;9530;48.930;9.526;2023-03-31T03:30:03;6.33;;;2.00;;
18804;SDS011;9530;48.930;9.526;2023-03-31T03:32:31;3.23;;;1.60;;
18804;SDS011;9530;48.930;9.526;2023-03-31T03:34:58;4.90;;;1.70;;
18804;SDS011;9530;48.930;9.526;2023-03-31T03:37:25;4.10;;;2.10;;
18804;SDS011;9530;48.930;9.526;2023-03-31T03:39:52;6.17;;;1.87;;
18804;SDS011;9530;48.930;9.526;2023-03-31T03:42:18;6.97;;;2.27;;
18804;SDS011;9530;48.930;9.526;2023-03-31T03:44:46;4.20;;;2.10;;
18804;SDS011;9530;48.930;9.526;2023-03-31T03:47:14;4.73;;;2.07;;
18804;SDS011;9530;48.930;9.526;2023-03-31T03:49:41;5.50;;;1.90;;
18804;SDS011;9530;48.930;9.526;2023-03-31T03:52:07;4.93;;;2.00;;
18804;SDS011;9530;48.930;9.526;2023-03-31T03:54:34;5.80;;;1.80;;
18804;SDS011;9530;48.930;9.526;2023-03-31T03:57:01;3.90;;;1.77;;
18804;SDS011;9530;48.930;9.526;2023-03-31T03:59:28;3.83;;;2.03;;
18804;SDS011;9530;48.930;9.526;2023-03-31T04:01:56;3.77;;;1.70;;
18804;SDS011;9530;48.930;9.526;2023-03-31T04:04:22;6.53;;;2.17;;
18804;SDS011;9530;48.930;9.526;2023-03-31T04:06:49;6.33;;;2.10;;
18804;SDS011;9530;48.930;9.526;2023-03-31T04:09:16;3.77;;;1.80;;
18804;SDS011;9530;48.930;9.526;2023-03-31T04:11:43;5.70;;;2.10;;
18804;SDS011;9530;48.930;9.526;2023-03-31T04:14:10;8.53;;;2.30;;
18804;SDS011;9530;48.930;9.526;2023-03-31T04:16:36;3.90;;;2.07;;
18804;SDS011;9530;48.930;9.526;2023-03-31T04:19:05;3.20;;;1.80;;
18804;SDS011;9530;48.930;9.526;2023-03-31T04:21:32;4.43;;;1.90;;
18804;SDS011;9530;48.930;9.526;2023-03-31T04:24:09;3.57;;;2.00;;
18804;SDS011;9530;48.930;9.526;2023-03-31T04:26:45;6.87;;;2.30;;
18804;SDS011;9530;48.930;9.526;2023-03-31T04:29:14;4.00;;;1.80;;
18804;SDS011;9530;48.930;9.526;2023-03-31T04:31:43;4.47;;;2.00;;
18804;SDS011;9530;48.930;9.526;2023-03-31T04:34:12;7.07;;;2.37;;
18804;SDS011;9530;48.930;9.526;2023-03-31T04:36:41;6.57;;;2.30;;
18804;SDS011;9530;48.930;9.526;2023-03-31T04:39:11;5.23;;;2.07;;
18804;SDS011;9530;48.930;9.526;2023-03-31T04:41:37;5.87;;;1.97;;
18804;SDS011;9530;48.930;9.526;2023-03-31T04:44:04;4.03;;;1.90;;
18804;SDS011;9530;48.930;9.526;2023-03-31T04:46:31;7.53;;;2.50;;
18804;SDS011;9530;48.930;9.526;2023-03-31T04:48:58;5.03;;;2.40;;
18804;SDS011;9530;48.930;9.526;2023-03-31T04:51:28;6.30;;;2.37;;
18804;SDS011;9530;48.930;9.526;2023-03-31T04:53:54;4.93;;;2.37;;
18804;SDS011;9530;48.930;9.526;2023-03-31T04:56:21;5.23;;;2.10;;
18804;SDS011;9530;48.930;9.526;2023-03-31T04:58:48;4.90;;;2.33;;
18804;SDS011;9530;48.930;9.526;2023-03-31T05:01:14;5.03;;;2.03;;
18804;SDS011;9530;48.930;9.526;2023-03-31T05:03:43;8.43;;;2.17;;
18804;SDS011;9530;48.930;9.526;2023-03-31T05:06:09;4.60;;;2.27;;
18804;SDS011;9530;48.930;9.526;2023-03-31T05:08:38;5.73;;;2.20;;
18804;SDS011;9530;48.930;9.526;2023-03-31T05:11:04;6.17;;;2.27;;
18804;SDS011;9530;48.930;9.526;2023-03-31T05:13:31;4.23;;;2.20;;
18804;SDS011;9530;48.930;9.526;2023-03-31T05:15:58;5.30;;;2.20;;
18804;SDS011;9530;48.930;9.526;2023-03-31T05:18:31;5.23;;;2.27;;
18804;SDS011;9530;48.930;9.526;2023-03-31T05:21:06;6.47;;;2.83;;
18804;SDS011;9530;48.930;9.526;2023-03-31T05:23:34;12.93;;;3.67;;
18804;SDS011;9530;48.930;9.526;2023-03-31T05:26:02;6.60;;;2.80;;
18804;SDS011;9530;48.930;9.526;2023-03-31T05:28:29;5.97;;;3.70;;
18804;SDS011;9530;48.930;9.526;2023-03-31T05:30:57;10.23;;;4.40;;
18804;SDS011;9530;48.930;9.526;2023-03-31T05:33:24;10.27;;;3.63;;
18804;SDS011;9530;48.930;9.526;2023-03-31T05:35:51;5.77;;;3.67;;
18804;SDS011;9530;48.930;9.526;2023-03-31T05:38:17;6.57;;;3.20;;
18804;SDS011;9530;48.930;9.526;2023-03-31T05:40:45;7.90;;;3.20;;
18804;SDS011;9530;48.930;9.526;2023-03-31T05:43:13;11.17;;;3.60;;
18804;SDS011;9530;48.930;9.526;2023-03-31T05:45:41;7.43;;;3.30;;
18804;SDS011;9530;48.930;9.526;2023-03-31T05:48:07;8.57;;;3.40;;
18804;SDS011;9530;48.930;9.526;2023-03-31T05:50:34;9.00;;;3.70;;
18804;SDS011;9530;48.930;9.526;2023-03-31T05:53:00;9.33;;;3.80;;
18804;SDS011;9530;48.930;9.526;2023-03-31T05:55:27;8.90;;;3.23;;
18804;SDS011;9530;48.930;9.526;2023-03-31T05:57:54;6.87;;;3.07;;
18804;SDS011;9530;48.930;9.526;2023-03-31T06:00:23;4.97;;;3.27;;
18804;SDS011;9530;48.930;9.526;2023-03-31T06:02:50;9.37;;;3.37;;
18804;SDS011;9530;48.930;9.526;2023-03-31T06:05:16;10.17;;;4.20;;
18804;SDS011;9530;48.930;9.526;2023-03-31T06:07:43;9.53;;;4.07;;
18804;SDS011;9530;48.930;9.526;2023-03-31T06:10:10;7.93;;;3.53;;
18804;SDS011;9530;48.930;9.526;2023-03-31T06:12:36;7.40;;;3.90;;
18804;SDS011;9530;48.930;9.526;2023-03-31T06:15:03;6.63;;;3.20;;
18804;SDS011;9530;48.930;9.526;2023-03-31T06:17:32;7.50;;;3.43;;
18804;SDS011;9530;48.930;9.526;2023-03-31T06:19:58;8.10;;;3.23;;
18804;SDS011;9530;48.930;9.526;2023-03-31T06:22:25;8.17;;;3.60;;
18804;SDS011;9530;48.930;9.526;2023-03-31T06:24:52;6.63;;;3.50;;
18804;SDS011;9530;48.930;9.526;2023-03-31T06:27:18;9.80;;;3.80;;
18804;SDS011;9530;48.930;9.526;2023-03-31T06:29:45;6.63;;;3.47;;
18804;SDS011;9530;48.930;9.526;2023-03-31T06:32:14;8.77;;;3.10;;
18804;SDS011;9530;48.930;9.526;2023-03-31T06:34:42;8.93;;;3.63;;
18804;SDS011;9530;48.930;9.526;2023-03-31T06:37:08;9.73;;;3.87;;
18804;SDS011;9530;48.930;9.526;2023-03-31T06:39:35;7.53;;;3.40;;
18804;SDS011;9530;48.930;9.526;2023-03-31T06:42:02;7.20;;;4.00;;
18804;SDS011;9530;48.930;9.526;2023-03-31T06:44:29;6.70;;;3.43;;
18804;SDS011;9530;48.930;9.526;2023-03-31T06:46:55;11.03;;;3.60;;
18804;SDS011;9530;48.930;9.526;2023-03-31T06:49:22;10.23;;;3.90;;
18804;SDS011;9530;48.930;9.526;2023-03-31T06:51:50;5.67;;;3.30;;
18804;SDS011;9530;48.930;9.526;2023-03-31T06:54:16;12.13;;;3.50;;
18804;SDS011;9530;48.930;9.526;2023-03-31T06:56:43;9.10;;;3.87;;
18804;SDS011;9530;48.930;9.526;2023-03-31T06:59:10;7.10;;;3.57;;
18804;SDS011;9530;48.930;9.526;2023-03-31T07:01:36;8.53;;;3.70;;
18804;SDS011;9530;48.930;9.526;2023-03-31T07:04:06;7.00;;;3.60;;
18804;SDS011;9530;48.930;9.526;2023-03-31T07:06:33;7.77;;;3.60;;
18804;SDS011;9530;48.930;9.526;2023-03-31T07:09:01;7.90;;;3.27;;
18804;SDS011;9530;48.930;9.526;2023-03-31T07:11:28;5.53;;;3.40;;
18804;SDS011;9530;48.930;9.526;2023-03-31T07:13:55;6.93;;;3.50;;
18804;SDS011;9530;48.930;9.526;2023-03-31T07:16:21;5.10;;;3.27;;
18804;SDS011;9530;48.930;9.526;2023-03-31T07:18:48;8.77;;;4.00;;
18804;SDS011;9530;48.930;9.526;2023-03-31T07:21:18;7.77;;;3.93;;
18804;SDS011;9530;48.930;9.526;2023-03-31T07:23:45;9.00;;;4.00;;
18804;SDS011;9530;48.930;9.526;2023-03-31T07:26:13;7.67;;;3.70;;
18804;SDS011;9530;48.930;9.526;2023-03-31T07:28:40;8.00;;;3.87;;
18804;SDS011;9530;48.930;9.526;2023-03-31T07:31:10;8.97;;;3.73;;
18804;SDS011;9530;48.930;9.526;2023-03-31T07:33:37;7.10;;;3.30;;
18804;SDS011;9530;48.930;9.526;2023-03-31T07:36:04;8.73;;;3.60;;
18804;SDS011;9530;48.930;9.526;2023-03-31T07:38:31;6.40;;;3.23;;
18804;SDS011;9530;48.930;9.526;2023-03-31T07:40:57;7.03;;;3.23;;
18804;SDS011;9530;48.930;9.526;2023-03-31T07:43:25;8.83;;;3.57;;
18804;SDS011;9530;48.930;9.526;2023-03-31T07:45:52;5.90;;;2.93;;
18804;SDS011;9530;48.930;9.526;2023-03-31T07:48:19;7.80;;;3.13;;
18804;SDS011;9530;48.930;9.526;2023-03-31T07:50:45;5.33;;;2.93;;
18804;SDS011;9530;48.930;9.526;2023-03-31T07:53:15;5.17;;;2.83;;
18804;SDS011;9530;48.930;9.526;2023-03-31T07:55:42;6.73;;;3.20;;
18804;SDS011;9530;48.930;9.526;2023-03-31T07:58:08;6.90;;;2.90;;
18804;SDS011;9530;48.930;9.526;2023-03-31T08:00:37;3.97;;;2.57;;
18804;SDS011;9530;48.930;9.526;2023-03-31T08:03:04;3.83;;;2.10;;
18804;SDS011;9530;48.930;9.526;2023-03-31T08:05:31;3.93;;;2.47;;
18804;SDS011;9530;48.930;9.526;2023-03-31T08:07:57;4.50;;;2.50;;
18804;SDS011;9530;48.930;9.526;2023-03-31T08:10:25;6.87;;;2.00;;
18804;SDS011;9530;48.930;9.526;2023-03-31T08:12:52;4.63;;;2.23;;
18804;SDS011;9530;48.930;9.526;2023-03-31T08:15:20;4.10;;;2.20;;
18804;SDS011;9530;48.930;9.526;2023-03-31T08:17:48;3.90;;;2.10;;
18804;SDS011;9530;48.930;9.526;2023-03-31T08:20:15;2.47;;;1.70;;
18804;SDS011;9530;48.930;9.526;2023-03-31T08:22:42;3.50;;;2.20;;
18804;SDS011;9530;48.930;9.526;2023-03-31T08:25:09;3.77;;;1.50;;
18804;SDS011;9530;48.930;9.526;2023-03-31T08:27:36;2.97;;;1.67;;
18804;SDS011;9530;48.930;9.526;2023-03-31T08:30:04;3.60;;;1.90;;
18804;SDS011;9530;48.930;9.526;2023-03-31T08:32:32;2.77;;;1.70;;
18804;SDS011;9530;48.930;9.526;2023-03-31T08:35:01;2.77;;;1.60;;
18804;SDS011;9530;48.930;9.526;2023-03-31T08:37:28;4.17;;;1.77;;
18804;SDS011;9530;48.930;9.526;2023-03-31T08:39:55;4.00;;;1.40;;
18804;SDS011;9530;48.930;9.526;2023-03-31T08:42:24;3.67;;;1.67;;
18804;SDS011;9530;48.930;9.526;2023-03-31T08:45:02;3.70;;;1.50;;
18804;SDS011;9530;48.930;9.526;2023-03-31T08:47:32;3.60;;;1.30;;
18804;SDS011;9530;48.930;9.526;2023-03-31T08:50:04;2.97;;;1.80;;
18804;SDS011;9530;48.930;9.526;2023-03-31T08:52:33;5.33;;;1.87;;
18804;SDS011;9530;48.930;9.526;2023-03-31T08:55:04;3.30;;;1.50;;
18804;SDS011;9530;48.930;9.526;2023-03-31T08:57:34;4.60;;;1.50;;
18804;SDS011;9530;48.930;9.526;2023-03-31T09:00:09;3.23;;;1.40;;
18804;SDS011;9530;48.930;9.526;2023-03-31T09:02:41;3.77;;;1.40;;
18804;SDS011;9530;48.930;9.526;2023-03-31T09:05:19;1.53;;;1.23;;
18804;SDS011;9530;48.930;9.526;2023-03-31T09:08:01;3.83;;;1.40;;
18804;SDS011;9530;48.930;9.526;2023-03-31T09:10:38;3.73;;;1.33;;
18804;SDS011;9530;48.930;9.526;2023-03-31T09:13:13;4.20;;;1.40;;
18804;SDS011;9530;48.930;9.526;2023-03-31T09:15:49;2.83;;;1.37;;
18804;SDS011;9530;48.930;9.526;2023-03-31T09:18:24;4.27;;;1.43;;
18804;SDS011;9530;48.930;9.526;2023-03-31T09:20:58;3.17;;;1.30;;
18804;SDS011;9530;48.930;9.526;2023-03-31T09:23:31;4.27;;;1.77;;
18804;SDS011;9530;48.930;9.526;2023-03-31T09:26:01;5.00;;;1.63;;
18804;SDS011;9530;48.930;9.526;2023-03-31T09:28:30;5.17;;;1.57;;
18804;SDS011;9530;48.930;9.526;2023-03-31T09:31:02;2.63;;;1.40;;
18804;SDS011;9530;48.930;9.526;2023-03-31T09:33:38;4.10;;;1.60;;
18804;SDS011;9530;48.930;9.526;2023-03-31T09:36:13;3.43;;;1.60;;
18804;SDS011;9530;48.930;9.526;2023-03-31T09:38:41;5.80;;;1.80;;
18804;SDS011;9530;48.930;9.526;2023-03-31T09:41:09;2.57;;;1.23;;
18804;SDS011;9530;48.930;9.526;2023-03-31T09:43:38;3.50;;;1.50;;
18804;SDS011;9530;48.930;9.526;2023-03-31T09:46:09;3.10;;;1.60;;
18804;SDS011;9530;48.930;9.526;2023-03-31T09:48:43;4.70;;;1.50;;
18804;SDS011;9530;48.930;9.526;2023-03-31T09:51:19;3.70;;;1.30;;
18804;SDS011;9530;48.930;9.526;2023-03-31T09:53:51;2.43;;;1.37;;
18804;SDS011;9530;48.930;9.526;2023-03-31T09:56:31;3.63;;;1.20;;
18804;SDS011;9530;48.930;9.526;2023-03-31T09:59:00;7.27;;;1.60;;
18804;SDS011;9530;48.930;9.526;2023-03-31T10:01:28;5.10;;;1.97;;
18804;SDS011;9530;48.930;9.526;2023-03-31T10:03:55;6.30;;;1.60;;
18804;SDS011;9530;48.930;9.526;2023-03-31T10:06:23;6.73;;;1.90;;
18804;SDS011;9530;48.930;9.526;2023-03-31T10:08:51;6.33;;;1.90;;
18804;SDS011;9530;48.930;9.526;2023-03-31T10:11:20;8.13;;;2.90;;
18804;SDS011;9530;48.930;9.526;2023-03-31T10:13:48;6.23;;;2.70;;
18804;SDS011;9530;48.930;9.526;2023-03-31T10:16:20;8.10;;;2.50;;
18804;SDS011;9530;48.930;9.526;2023-03-31T10:18:48;5.90;;;2.00;;
18804;SDS011;9530;48.930;9.526;2023-03-31T10:21:17;6.27;;;2.00;;
18804;SDS011;9530;48.930;9.526;2023-03-31T10:23:48;6.07;;;1.80;;
18804;SDS011;9530;48.930;9.526;2023-03-31T10:26:16;4.17;;;1.70;;
18804;SDS011;9530;48.930;9.526;2023-03-31T10:28:45;6.17;;;1.90;;
18804;SDS011;9530;48.930;9.526;2023-03-31T10:31:14;4.37;;;1.53;;
18804;SDS011;9530;48.930;9.526;2023-03-31T10:33:42;6.97;;;1.93;;
18804;SDS011;9530;48.930;9.526;2023-03-31T10:36:14;6.60;;;1.93;;
18804;SDS011;9530;48.930;9.526;2023-03-31T10:38:44;7.03;;;1.70;;
18804;SDS011;9530;48.930;9.526;2023-03-31T10:41:17;6.23;;;1.93;;
18804;SDS011;9530;48.930;9.526;2023-03-31T10:43:47;5.20;;;1.70;;
18804;SDS011;9530;48.930;9.526;2023-03-31T10:46:16;7.50;;;2.03;;
18804;SDS011;9530;48.930;9.526;2023-03-31T10:48:43;5.47;;;1.80;;
18804;SDS011;9530;48.930;9.526;2023-03-31T10:51:11;5.97;;;1.87;;
18804;SDS011;9530;48.930;9.526;2023-03-31T10:53:42;7.97;;;1.80;;
18804;SDS011;9530;48.930;9.526;2023-03-31T10:56:13;4.93;;;1.80;;
18804;SDS011;9530;48.930;9.526;2023-03-31T10:59:03;6.87;;;2.00;;
18804;SDS011;9530;48.930;9.526;2023-03-31T11:01:48;5.27;;;1.70;;
18804;SDS011;9530;48.930;9.526;2023-03-31T11:04:28;7.03;;;1.90;;
18804;SDS011;9530;48.930;9.526;2023-03-31T11:07:07;4.63;;;1.73;;
18804;SDS011;9530;48.930;9.526;2023-03-31T11:09:44;5.43;;;2.20;;
18804;SDS011;9530;48.930;9.526;2023-03-31T11:12:27;5.30;;;1.80;;
18804;SDS011;9530;48.930;9.526;2023-03-31T11:15:02;9.43;;;2.27;;
18804;SDS011;9530;48.930;9.526;2023-03-31T11:17:41;6.30;;;2.07;;
18804;SDS011;9530;48.930;9.526;2023-03-31T11:20:20;5.90;;;1.67;;
18804;SDS011;9530;48.930;9.526;2023-03-31T11:22:54;7.37;;;2.37;;
18804;SDS011;9530;48.930;9.526;2023-03-31T11:25:26;8.37;;;2.00;;
18804;SDS011;9530;48.930;9.526;2023-03-31T11:28:22;7.90;;;2.30;;
18804;SDS011;9530;48.930;9.526;2023-03-31T11:31:16;5.90;;;1.97;;
18804;SDS011;9530;48.930;9.526;2023-03-31T11:33:56;6.57;;;1.70;;
18804;SDS011;9530;48.930;9.526;2023-03-31T11:36:55;6.87;;;1.80;;
18804;SDS011;9530;48.930;9.526;2023-03-31T11:39:39;5.13;;;1.30;;
18804;SDS011;9530;48.930;9.526;2023-03-31T11:42:15;4.33;;;1.50;;
18804;SDS011;9530;48.930;9.526;2023-03-31T11:44:48;3.67;;;1.10;;
18804;SDS011;9530;48.930;9.526;2023-03-31T11:47:20;2.13;;;0.90;;
18804;SDS011;9530;48.930;9.526;2023-03-31T11:49:50;2.93;;;0.93;;
18804;SDS011;9530;48.930;9.526;2023-03-31T11:52:21;2.63;;;1.00;;
18804;SDS011;9530;48.930;9.526;2023-03-31T11:54:54;2.77;;;0.90;;
18804;SDS011;9530;48.930;9.526;2023-03-31T11:57:24;2.07;;;1.23;;
18804;SDS011;9530;48.930;9.526;2023-03-31T11:59:57;3.20;;;0.93;;
18804;SDS011;9530;48.930;9.526;2023-03-31T12:02:32;3.20;;;1.00;;
18804;SDS011;9530;48.930;9.526;2023-03-31T12:05:05;1.33;;;0.60;;
18804;SDS011;9530;48.930;9.526;2023-03-31T12:07:36;1.60;;;0.90;;
18804;SDS011;9530;48.930;9.526;2023-03-31T12:10:11;4.73;;;1.00;;
18804;SDS011;9530;48.930;9.526;2023-03-31T12:12:42;2.17;;;1.00;;
18804;SDS011;9530;48.930;9.526;2023-03-31T12:15:17;2.33;;;0.93;;
18804;SDS011;9530;48.930;9.526;2023-03-31T12:17:48;1.70;;;0.90;;
18804;SDS011;9530;48.930;9.526;2023-03-31T12:20:23;1.23;;;0.70;;
18804;SDS011;9530;48.930;9.526;2023-03-31T12:22:55;2.30;;;0.90;;
18804;SDS011;9530;48.930;9.526;2023-03-31T12:25:24;4.00;;;0.87;;
18804;SDS011;9530;48.930;9.526;2023-03-31T12:28:03;2.10;;;0.80;;
18804;SDS011;9530;48.930;9.526;2023-03-31T12:30:33;1.80;;;0.80;;
18804;SDS011;9530;48.930;9.526;2023-03-31T12:33:03;0.73;;;0.67;;
18804;SDS011;9530;48.930;9.526;2023-03-31T12:35:37;2.03;;;0.80;;
18804;SDS011;9530;48.930;9.526;2023-03-31T12:38:17;1.30;;;0.80;;
18804;SDS011;9530;48.930;9.526;2023-03-31T12:41:01;2.17;;;0.93;;
18804;SDS011;9530;48.930;9.526;2023-03-31T12:43:36;0.87;;;0.60;;
18804;SDS011;9530;48.930;9.526;2023-03-31T12:46:33;2.37;;;0.90;;
18804;SDS011;9530;48.930;9.526;2023-03-31T12:49:11;2.57;;;0.87;;
18804;SDS011;9530;48.930;9.526;2023-03-31T12:51:58;1.47;;;0.73;;
18804;SDS011;9530;48.930;9.526;2023-03-31T12:57:33;2.97;;;0.93;;
18804;SDS011;9530;48.930;9.526;2023-03-31T13:00:21;2.53;;;1.00;;
18804;SDS011;9530;48.930;9.526;2023-03-31T13:02:51;2.80;;;1.10;;
18804;SDS011;9530;48.930;9.526;2023-03-31T13:06:09;3.70;;;1.10;;
18804;SDS011;9530;48.930;9.526;2023-03-31T13:08:56;2.70;;;1.00;;
18804;SDS011;9530;48.930;9.526;2023-03-31T13:11:35;5.93;;;1.17;;
18804;SDS011;9530;48.930;9.526;2023-03-31T13:14:05;4.50;;;1.10;;
18804;SDS011;9530;48.930;9.526;2023-03-31T13:16:38;2.63;;;1.20;;
18804;SDS011;9530;48.930;9.526;2023-03-31T13:19:05;6.03;;;1.27;;
18804;SDS011;9530;48.930;9.526;2023-03-31T13:21:36;3.10;;;1.03;;
18804;SDS011;9530;48.930;9.526;2023-03-31T13:24:19;3.40;;;1.20;;
18804;SDS011;9530;48.930;9.526;2023-03-31T13:26:47;3.23;;;1.30;;
18804;SDS011;9530;48.930;9.526;2023-03-31T13:29:18;3.97;;;1.27;;
18804;SDS011;9530;48.930;9.526;2023-03-31T13:34:43;3.47;;;1.20;;
18804;SDS011;9530;48.930;9.526;2023-03-31T13:37:18;5.67;;;1.30;;
18804;SDS011;9530;48.930;9.526;2023-03-31T13:42:58;6.07;;;1.37;;
18804;SDS011;9530;48.930;9.526;2023-03-31T13:45:43;2.23;;;0.90;;
18804;SDS011;9530;48.930;9.526;2023-03-31T13:48:22;3.37;;;1.40;;
18804;SDS011;9530;48.930;9.526;2023-03-31T13:51:10;2.83;;;1.10;;
18804;SDS011;9530;48.930;9.526;2023-03-31T13:53:59;3.07;;;1.00;;
18804;SDS011;9530;48.930;9.526;2023-03-31T13:56:51;2.97;;;0.97;;
18804;SDS011;9530;48.930;9.526;2023-03-31T13:59:33;6.30;;;1.27;;
18804;SDS011;9530;48.930;9.526;2023-03-31T14:02:31;2.20;;;0.87;;
18804;SDS011;9530;48.930;9.526;2023-03-31T14:05:22;1.70;;;0.90;;
18804;SDS011;9530;48.930;9.526;2023-03-31T14:07:54;3.30;;;0.73;;
18804;SDS011;9530;48.930;9.526;2023-03-31T14:10:26;1.83;;;0.87;;
18804;SDS011;9530;48.930;9.526;2023-03-31T14:13:05;1.33;;;0.60;;
18804;SDS011;9530;48.930;9.526;2023-03-31T14:15:34;1.70;;;0.53;;
18804;SDS011;9530;48.930;9.526;2023-03-31T14:18:03;2.10;;;0.60;;
18804;SDS011;9530;48.930;9.526;2023-03-31T14:20:32;0.70;;;0.50;;
18804;SDS011;9530;48.930;9.526;2023-03-31T14:23:07;1.20;;;0.60;;
18804;SDS011;9530;48.930;9.526;2023-03-31T14:25:45;2.47;;;0.67;;
18804;SDS011;9530;48.930;9.526;2023-03-31T14:28:20;2.90;;;0.60;;
18804;SDS011;9530;48.930;9.526;2023-03-31T14:30:54;2.30;;;0.60;;
18804;SDS011;9530;48.930;9.526;2023-03-31T14:33:35;1.67;;;0.50;;
18804;SDS011;9530;48.930;9.526;2023-03-31T14:36:10;1.67;;;0.70;;
18804;SDS011;9530;48.930;9.526;2023-03-31T14:38:43;3.23;;;0.80;;
18804;SDS011;9530;48.930;9.526;2023-03-31T14:41:16;2.20;;;0.83;;
18804;SDS011;9530;48.930;9.526;2023-03-31T14:43:46;2.70;;;1.10;;
18804;SDS011;9530;48.930;9.526;2023-03-31T14:46:17;3.73;;;0.90;;
18804;SDS011;9530;48.930;9.526;2023-03-31T14:48:46;2.63;;;0.90;;
18804;SDS011;9530;48.930;9.526;2023-03-31T14:51:15;3.23;;;1.10;;
18804;SDS011;9530;48.930;9.526;2023-03-31T14:53:44;4.40;;;1.13;;
18804;SDS011;9530;48.930;9.526;2023-03-31T14:56:11;2.77;;;0.90;;
18804;SDS011;9530;48.930;9.526;2023-03-31T14:58:43;3.97;;;1.10;;
18804;SDS011;9530;48.930;9.526;2023-03-31T15:01:13;3.17;;;1.00;;
18804;SDS011;9530;48.930;9.526;2023-03-31T15:03:43;1.93;;;1.00;;
18804;SDS011;9530;48.930;9.526;2023-03-31T15:06:11;2.20;;;1.00;;
18804;SDS011;9530;48.930;9.526;2023-03-31T15:08:39;1.77;;;1.00;;
18804;SDS011;9530;48.930;9.526;2023-03-31T15:11:07;1.83;;;1.00;;
18804;SDS011;9530;48.930;9.526;2023-03-31T15:13:39;1.00;;;0.60;;
18804;SDS011;9530;48.930;9.526;2023-03-31T15:16:19;1.43;;;0.70;;
18804;SDS011;9530;48.930;9.526;2023-03-31T15:18:54;1.67;;;0.70;;
18804;SDS011;9530;48.930;9.526;2023-03-31T15:21:22;1.50;;;0.80;;
18804;SDS011;9530;48.930;9.526;2023-03-31T15:23:50;1.57;;;0.70;;
18804;SDS011;9530;48.930;9.526;2023-03-31T15:26:18;4.00;;;0.80;;
18804;SDS011;9530;48.930;9.526;2023-03-31T15:28:50;1.67;;;0.87;;
18804;SDS011;9530;48.930;9.526;2023-03-31T15:31:19;5.33;;;0.97;;
18804;SDS011;9530;48.930;9.526;2023-03-31T15:33:46;3.47;;;1.00;;
18804;SDS011;9530;48.930;9.526;2023-03-31T15:36:13;2.23;;;0.90;;
18804;SDS011;9530;48.930;9.526;2023-03-31T15:38:40;1.70;;;0.80;;
18804;SDS011;9530;48.930;9.526;2023-03-31T15:41:11;1.83;;;0.90;;
18804;SDS011;9530;48.930;9.526;2023-03-31T15:43:41;2.33;;;0.80;;